Terminal Aerodrome Forecast
Issued by NWS Boston, MA

Home | Current Version | Previous Version | Text Only | Print | Product List | Glossary On
Versions: 1 2 3 4 5 6 7 8 9 10 11 12 13 14 15 16
000
FTUS41 KBOX 230529
TAFORH
TAF
KORH 230529Z 2306/2406 26008KT P6SM BKN070
     FM231400 29012KT P6SM BKN040
     FM231700 30014G21KT P6SM -SHRA OVC035
     FM232000 31018G26KT P6SM OVC035=

USA.gov is the U.S. government's official web portal to all federal, state and local government web resources and services.